createdAt,value
2017-10-29T00:00:07.809Z,19.50
2017-10-29T00:02:37.307Z,19.50
2017-10-29T00:05:06.765Z,19.50
2017-10-29T00:07:36.297Z,19.50
2017-10-29T00:10:05.813Z,19.40
2017-10-29T00:12:36.665Z,19.40
2017-10-29T00:15:07.354Z,19.30
2017-10-29T00:17:36.725Z,19.30
2017-10-29T00:20:05.798Z,19.30
2017-10-29T00:22:35.441Z,19.30
2017-10-29T00:25:04.293Z,19.20
2017-10-29T00:27:33.812Z,19.10
2017-10-29T00:30:02.971Z,19.10
2017-10-29T00:32:32.435Z,19.00
2017-10-29T00:35:01.926Z,18.90
2017-10-29T00:37:30.877Z,18.80
2017-10-29T00:40:01.097Z,18.40
2017-10-29T00:42:30.626Z,18.20
2017-10-29T00:44:59.486Z,18.20
2017-10-29T00:47:31.278Z,18.10
2017-10-29T00:50:01.824Z,17.80
2017-10-29T00:52:31.465Z,17.60
2017-10-29T00:55:02.029Z,17.50
2017-10-29T00:57:32.892Z,17.30
2017-10-29T01:00:02.095Z,17.40
2017-10-29T01:02:31.456Z,17.20
2017-10-29T01:05:03.772Z,17.00
2017-10-29T01:07:34.068Z,16.90
2017-10-29T01:10:04.164Z,16.70
2017-10-29T01:12:33.411Z,16.60
2017-10-29T01:15:03.110Z,16.40
2017-10-29T01:17:32.033Z,16.10
2017-10-29T01:20:01.328Z,15.90
2017-10-29T01:22:30.650Z,15.80
2017-10-29T01:25:00.761Z,15.50
2017-10-29T01:27:30.649Z,15.50
2017-10-29T01:29:59.835Z,15.40
2017-10-29T01:32:30.268Z,15.40
2017-10-29T01:34:59.652Z,15.20
2017-10-29T01:37:31.943Z,15.00
2017-10-29T01:40:01.234Z,14.90
2017-10-29T01:42:31.938Z,14.80
2017-10-29T01:45:09.814Z,14.70
2017-10-29T01:47:40.876Z,14.60
2017-10-29T01:50:10.446Z,14.60
2017-10-29T01:52:40.044Z,14.50
2017-10-29T01:55:09.324Z,14.50
2017-10-29T01:57:38.717Z,14.40
2017-10-29T02:00:08.474Z,14.40
2017-10-29T02:02:37.784Z,14.30
2017-10-29T02:05:07.022Z,14.20
2017-10-29T02:07:39.133Z,14.10
2017-10-29T02:10:11.092Z,13.90
2017-10-29T02:12:40.238Z,13.80
2017-10-29T02:15:09.250Z,13.70
2017-10-29T02:17:39.215Z,13.60
2017-10-29T02:20:08.436Z,13.60
2017-10-29T02:22:37.638Z,13.60
2017-10-29T02:25:07.763Z,13.60
2017-10-29T02:27:37.204Z,13.60
2017-10-29T02:30:06.523Z,13.60
2017-10-29T02:32:35.778Z,13.50
2017-10-29T02:35:06.066Z,13.60
2017-10-29T02:37:35.469Z,13.60
2017-10-29T02:40:04.655Z,13.60
2017-10-29T02:42:34.333Z,13.50
2017-10-29T02:45:03.945Z,13.60
2017-10-29T02:47:33.393Z,13.60
2017-10-29T02:50:02.113Z,13.70
2017-10-29T02:52:32.324Z,13.70
2017-10-29T02:55:02.692Z,13.90
2017-10-29T02:57:32.284Z,13.80
2017-10-29T03:00:01.016Z,13.80
2017-10-29T03:02:30.580Z,13.90
2017-10-29T03:05:00.377Z,14.00
2017-10-29T03:07:30.806Z,14.00
2017-10-29T03:10:01.137Z,14.10
2017-10-29T03:12:30.711Z,14.10
2017-10-29T03:14:59.913Z,14.30
2017-10-29T03:17:29.339Z,14.50
2017-10-29T03:19:59.344Z,14.70
2017-10-29T03:22:29.713Z,15.00
2017-10-29T03:24:59.305Z,15.00
2017-10-29T03:27:28.740Z,15.10
2017-10-29T03:29:58.182Z,15.10
2017-10-29T03:32:27.677Z,15.10
2017-10-29T03:34:56.843Z,15.20
2017-10-29T03:37:26.304Z,15.20
2017-10-29T03:39:55.729Z,15.20
2017-10-29T03:42:24.997Z,15.30
2017-10-29T03:44:54.788Z,15.30
2017-10-29T03:47:24.212Z,15.30
2017-10-29T03:49:53.483Z,15.30
2017-10-29T03:52:25.608Z,15.30
2017-10-29T03:54:56.056Z,15.30
2017-10-29T03:57:25.492Z,15.30
2017-10-29T03:59:54.676Z,15.30
2017-10-29T04:02:23.948Z,15.20
2017-10-29T04:04:54.672Z,15.10
2017-10-29T04:07:23.759Z,15.10
2017-10-29T04:09:53.075Z,15.00
2017-10-29T04:12:22.630Z,14.90
2017-10-29T04:14:51.747Z,14.90
2017-10-29T04:17:21.006Z,14.90
2017-10-29T04:19:50.312Z,14.80
2017-10-29T04:22:20.145Z,14.80
2017-10-29T04:24:49.062Z,14.80
2017-10-29T04:27:19.082Z,14.80
2017-10-29T04:29:48.624Z,14.70
2017-10-29T04:32:17.708Z,14.80
2017-10-29T04:34:47.227Z,14.70
2017-10-29T04:37:16.674Z,14.70
2017-10-29T04:39:45.765Z,14.80
2017-10-29T04:42:15.217Z,14.70
2017-10-29T04:44:44.976Z,14.60
2017-10-29T04:47:15.279Z,14.60
2017-10-29T04:49:45.398Z,14.60
2017-10-29T04:52:14.554Z,14.50
2017-10-29T04:54:44.069Z,14.50
2017-10-29T04:57:13.300Z,14.40
2017-10-29T04:59:43.031Z,14.30
2017-10-29T05:02:12.574Z,14.30
2017-10-29T05:04:41.853Z,14.20
2017-10-29T05:07:12.113Z,13.90
2017-10-29T05:09:41.302Z,13.90
2017-10-29T05:12:10.616Z,13.80
2017-10-29T05:14:39.994Z,13.70
2017-10-29T05:17:09.170Z,13.60
2017-10-29T05:19:38.394Z,13.60
2017-10-29T05:22:07.896Z,13.40
2017-10-29T05:24:37.481Z,13.30
2017-10-29T05:27:08.131Z,13.10
2017-10-29T05:29:37.861Z,13.10
2017-10-29T05:32:07.672Z,13.00
2017-10-29T05:34:37.185Z,12.90
2017-10-29T05:37:05.945Z,12.80
2017-10-29T05:39:36.400Z,12.50
2017-10-29T05:42:05.702Z,12.50
2017-10-29T05:44:34.888Z,12.50
2017-10-29T05:47:05.095Z,12.40
2017-10-29T05:49:35.105Z,12.30
2017-10-29T05:52:06.571Z,12.20
2017-10-29T05:54:36.060Z,12.20
2017-10-29T05:57:05.238Z,12.20
2017-10-29T05:59:34.440Z,12.10
2017-10-29T06:02:04.564Z,12.20
2017-10-29T06:04:34.036Z,12.10
2017-10-29T06:07:03.015Z,12.10
2017-10-29T06:09:32.349Z,12.10
2017-10-29T06:12:02.222Z,12.00
2017-10-29T06:14:31.623Z,12.10
2017-10-29T06:17:01.131Z,12.00
2017-10-29T06:19:31.399Z,12.10
2017-10-29T06:22:01.741Z,12.10
2017-10-29T06:24:31.278Z,12.00
2017-10-29T06:27:01.336Z,12.00
2017-10-29T06:29:30.710Z,11.90
2017-10-29T06:32:00.012Z,11.80
2017-10-29T06:34:29.375Z,11.80
2017-10-29T06:36:58.538Z,11.80
2017-10-29T06:39:27.897Z,11.70
2017-10-29T06:41:56.730Z,11.70
2017-10-29T06:44:25.446Z,11.70
2017-10-29T06:46:55.021Z,11.60
2017-10-29T06:49:24.320Z,11.60
2017-10-29T06:51:53.452Z,11.80
2017-10-29T06:54:23.749Z,11.60
2017-10-29T06:56:52.943Z,11.50
2017-10-29T06:59:22.000Z,11.70
2017-10-29T07:01:51.002Z,11.50
2017-10-29T07:04:19.928Z,11.40
2017-10-29T07:06:49.262Z,11.30
2017-10-29T07:09:19.286Z,11.20
2017-10-29T07:11:48.832Z,11.30
2017-10-29T07:14:18.204Z,11.20
2017-10-29T07:16:47.628Z,11.20
2017-10-29T07:19:16.974Z,11.20
2017-10-29T07:21:46.647Z,11.10
2017-10-29T07:24:15.758Z,11.00
2017-10-29T07:26:45.062Z,10.90
2017-10-29T07:29:14.353Z,11.00
2017-10-29T07:31:43.601Z,10.90
2017-10-29T07:34:14.368Z,10.90
2017-10-29T07:36:43.694Z,10.90
2017-10-29T07:39:13.067Z,10.90
2017-10-29T07:41:42.343Z,10.80
2017-10-29T07:44:12.301Z,10.70
2017-10-29T07:46:41.125Z,10.70
2017-10-29T07:49:11.568Z,10.70
2017-10-29T07:51:41.553Z,10.70
2017-10-29T07:54:10.740Z,10.70
2017-10-29T07:56:40.735Z,10.70
2017-10-29T07:59:10.062Z,10.60
2017-10-29T08:01:39.472Z,10.60
2017-10-29T08:04:09.074Z,10.60
2017-10-29T08:06:38.304Z,10.60
2017-10-29T08:09:08.343Z,10.50
2017-10-29T08:11:38.074Z,10.40
2017-10-29T08:14:07.226Z,10.80
2017-10-29T08:16:36.868Z,10.30
2017-10-29T08:19:06.518Z,10.30
2017-10-29T08:21:36.000Z,10.40
2017-10-29T08:24:05.741Z,10.20
2017-10-29T08:26:34.940Z,10.10
2017-10-29T08:29:04.036Z,10.10
2017-10-29T08:31:33.408Z,10.10
2017-10-29T08:34:02.978Z,10.00
2017-10-29T08:36:32.959Z,10.10
2017-10-29T08:39:02.343Z,10.00
2017-10-29T08:41:31.725Z,10.00
2017-10-29T08:44:00.852Z,10.40
2017-10-29T08:46:30.127Z,10.00
2017-10-29T08:48:59.454Z,10.00
2017-10-29T08:51:28.783Z,10.00
2017-10-29T08:54:00.031Z,10.00
2017-10-29T08:56:30.139Z,9.80
2017-10-29T08:59:00.496Z,9.80
2017-10-29T09:01:29.953Z,9.80
2017-10-29T09:03:59.201Z,9.80
2017-10-29T09:06:28.610Z,9.80
2017-10-29T09:08:57.797Z,9.70
2017-10-29T09:11:27.553Z,9.50
2017-10-29T09:13:56.889Z,9.70
2017-10-29T09:16:26.202Z,9.50
2017-10-29T09:18:55.293Z,9.50
2017-10-29T09:21:24.918Z,9.60
2017-10-29T09:23:54.392Z,9.90
2017-10-29T09:26:23.553Z,9.60
2017-10-29T09:28:54.536Z,9.60
2017-10-29T09:31:23.643Z,9.70
2017-10-29T09:33:52.959Z,9.60
2017-10-29T09:36:22.349Z,9.70
2017-10-29T09:38:52.416Z,9.70
2017-10-29T09:41:22.075Z,10.00
2017-10-29T09:43:51.105Z,9.80
2017-10-29T09:46:20.569Z,9.80
2017-10-29T09:48:50.007Z,9.90
2017-10-29T09:51:19.487Z,9.80
2017-10-29T09:53:48.804Z,10.10
2017-10-29T09:56:18.391Z,10.20
2017-10-29T09:58:48.138Z,10.40
2017-10-29T10:01:17.375Z,10.30
2017-10-29T10:03:46.670Z,10.30
2017-10-29T10:06:16.201Z,10.40
2017-10-29T10:08:46.623Z,10.30
2017-10-29T10:11:16.662Z,10.70
2017-10-29T10:13:45.778Z,10.60
2017-10-29T10:16:15.028Z,10.70
2017-10-29T10:18:44.633Z,10.70
2017-10-29T10:21:13.915Z,10.80
2017-10-29T10:23:43.327Z,10.80
2017-10-29T10:26:12.513Z,10.90
2017-10-29T10:28:42.825Z,11.20
2017-10-29T10:31:12.268Z,11.00
2017-10-29T10:33:41.400Z,11.10
2017-10-29T10:36:10.914Z,11.20
2017-10-29T10:38:40.491Z,11.20
2017-10-29T10:41:09.817Z,11.20
2017-10-29T10:43:39.599Z,11.20
2017-10-29T10:46:08.886Z,11.20
2017-10-29T10:48:38.022Z,11.10
2017-10-29T10:51:07.456Z,11.30
2017-10-29T10:53:36.906Z,11.00
2017-10-29T10:56:07.055Z,11.10
2017-10-29T10:58:36.327Z,11.20
2017-10-29T11:01:06.390Z,11.20
2017-10-29T11:03:35.814Z,11.20
2017-10-29T11:06:05.338Z,11.00
2017-10-29T11:08:35.304Z,11.00
2017-10-29T11:11:04.904Z,11.20
2017-10-29T11:13:34.912Z,11.00
2017-10-29T11:16:04.317Z,11.00
2017-10-29T11:18:34.491Z,11.00
2017-10-29T11:21:03.926Z,11.00
2017-10-29T11:23:33.886Z,11.00
2017-10-29T11:26:03.184Z,11.20
2017-10-29T11:28:32.897Z,11.10
2017-10-29T11:31:02.049Z,11.10
2017-10-29T11:33:31.136Z,11.10
2017-10-29T11:36:00.772Z,11.20
2017-10-29T11:38:30.326Z,11.30
2017-10-29T11:40:59.844Z,11.30
2017-10-29T11:43:29.213Z,11.40
2017-10-29T11:45:58.616Z,11.50
2017-10-29T11:48:27.785Z,11.50
2017-10-29T11:50:57.509Z,11.60
2017-10-29T11:53:27.122Z,11.30
2017-10-29T11:55:56.394Z,11.20
2017-10-29T11:58:27.219Z,11.00
2017-10-29T12:00:57.359Z,11.20
2017-10-29T12:03:26.663Z,11.10
2017-10-29T12:05:55.795Z,11.10
2017-10-29T12:08:25.036Z,10.70
2017-10-29T12:10:55.521Z,11.00
2017-10-29T12:13:24.956Z,11.00
2017-10-29T12:15:54.006Z,11.00
2017-10-29T12:18:23.587Z,11.00
2017-10-29T12:20:52.850Z,11.00
2017-10-29T12:23:22.128Z,11.10
2017-10-29T12:25:51.382Z,11.20
2017-10-29T12:28:21.940Z,11.40
2017-10-29T12:30:51.307Z,11.30
2017-10-29T12:33:20.797Z,11.50
2017-10-29T12:35:49.923Z,11.50
2017-10-29T12:38:19.202Z,11.60
2017-10-29T12:40:48.226Z,11.70
2017-10-29T12:43:17.737Z,11.80
2017-10-29T12:45:46.992Z,11.80
2017-10-29T12:48:16.251Z,11.90
2017-10-29T12:50:45.434Z,12.00
2017-10-29T12:53:14.942Z,12.00
2017-10-29T12:55:44.103Z,12.00
2017-10-29T12:58:14.086Z,12.10
2017-10-29T13:00:43.895Z,12.10
2017-10-29T13:03:13.096Z,12.10
2017-10-29T13:05:42.756Z,12.20
2017-10-29T13:08:12.946Z,12.10
2017-10-29T13:10:42.245Z,12.10
2017-10-29T13:13:11.460Z,12.20
2017-10-29T13:15:40.738Z,12.20
2017-10-29T13:18:09.878Z,12.20
2017-10-29T13:20:40.901Z,11.90
2017-10-29T13:23:10.806Z,11.80
2017-10-29T13:25:40.477Z,11.70
2017-10-29T13:28:09.810Z,11.50
2017-10-29T13:30:38.892Z,11.50
2017-10-29T13:33:08.054Z,11.50
2017-10-29T13:35:37.264Z,11.50
2017-10-29T13:38:06.639Z,11.40
2017-10-29T13:40:35.923Z,11.20
2017-10-29T13:43:06.612Z,11.00
2017-10-29T13:45:36.281Z,11.00
2017-10-29T13:48:05.860Z,10.90
2017-10-29T13:50:35.912Z,10.70
2017-10-29T13:53:05.772Z,10.60
2017-10-29T13:55:35.244Z,10.50
2017-10-29T13:58:04.932Z,10.40
2017-10-29T14:00:34.299Z,10.50
2017-10-29T14:03:05.052Z,10.50
2017-10-29T14:05:34.520Z,10.50
2017-10-29T14:08:03.839Z,10.90
2017-10-29T14:10:33.157Z,10.60
2017-10-29T14:13:03.803Z,10.80
2017-10-29T14:15:33.247Z,10.70
2017-10-29T14:18:02.516Z,10.60
2017-10-29T14:20:31.764Z,10.60
2017-10-29T14:23:01.062Z,10.60
2017-10-29T14:25:30.448Z,10.70
2017-10-29T14:27:59.649Z,10.70
2017-10-29T14:30:29.062Z,10.70
2017-10-29T14:32:59.112Z,10.70
2017-10-29T14:35:28.884Z,10.80
2017-10-29T14:37:58.429Z,10.80
2017-10-29T14:40:28.541Z,10.60
2017-10-29T14:42:57.677Z,10.70
2017-10-29T14:45:27.018Z,10.80
2017-10-29T14:47:56.194Z,10.80
2017-10-29T14:50:25.541Z,10.90
2017-10-29T14:52:56.444Z,10.90
2017-10-29T14:55:25.803Z,10.90
2017-10-29T14:57:56.140Z,11.00
2017-10-29T15:00:25.053Z,11.00
2017-10-29T15:02:54.308Z,11.10
2017-10-29T15:05:25.194Z,10.90
2017-10-29T15:07:54.785Z,11.20
2017-10-29T15:10:24.719Z,10.90
2017-10-29T15:12:54.194Z,11.00
2017-10-29T15:15:25.378Z,11.00
2017-10-29T15:17:55.496Z,10.90
2017-10-29T15:20:26.034Z,10.90
2017-10-29T15:22:54.883Z,10.90
2017-10-29T15:25:24.056Z,10.90
2017-10-29T15:27:53.530Z,10.80
2017-10-29T15:30:22.792Z,11.10
2017-10-29T15:32:52.290Z,11.00
2017-10-29T15:35:22.208Z,10.80
2017-10-29T15:37:51.105Z,11.20
2017-10-29T15:40:20.002Z,10.90
2017-10-29T15:42:49.287Z,10.80
2017-10-29T15:45:18.478Z,10.80
2017-10-29T15:47:48.682Z,11.00
2017-10-29T15:50:17.626Z,11.00
2017-10-29T15:52:46.500Z,11.20
2017-10-29T15:55:17.194Z,11.20
2017-10-29T15:57:46.628Z,11.30
2017-10-29T16:00:17.026Z,11.40
2017-10-29T16:02:47.454Z,11.30
2017-10-29T16:05:17.511Z,11.20
2017-10-29T16:07:48.221Z,11.20
2017-10-29T16:10:20.116Z,10.90
2017-10-29T16:12:49.619Z,10.80
2017-10-29T16:15:18.863Z,11.20
2017-10-29T16:17:48.514Z,10.90
2017-10-29T16:20:17.997Z,11.00
2017-10-29T16:22:47.291Z,11.10
2017-10-29T16:25:17.377Z,11.10
2017-10-29T16:27:46.576Z,11.30
2017-10-29T16:30:15.808Z,11.30
2017-10-29T16:32:45.077Z,11.10
2017-10-29T16:35:14.325Z,11.20
2017-10-29T16:37:43.506Z,11.20
2017-10-29T16:40:13.076Z,11.30
2017-10-29T16:42:42.567Z,11.40
2017-10-29T16:45:12.446Z,11.50
2017-10-29T16:47:41.793Z,11.60
2017-10-29T16:50:10.883Z,11.60
2017-10-29T16:52:40.538Z,11.60
2017-10-29T16:55:10.149Z,11.50
2017-10-29T16:57:39.493Z,11.50
2017-10-29T17:00:09.064Z,11.50
2017-10-29T17:15:45.057Z,13.00
2017-10-29T17:18:14.411Z,13.00
2017-10-29T17:20:43.662Z,13.10
2017-10-29T17:23:13.340Z,13.20
2017-10-29T17:25:42.704Z,13.60
2017-10-29T17:28:12.024Z,13.80
2017-10-29T17:30:41.476Z,14.00
2017-10-29T17:33:11.688Z,14.40
2017-10-29T17:35:41.183Z,14.40
2017-10-29T17:38:10.332Z,14.50
2017-10-29T17:40:39.906Z,14.70
2017-10-29T17:43:09.596Z,15.00
2017-10-29T17:45:40.223Z,15.10
2017-10-29T17:48:18.725Z,15.30
2017-10-29T17:50:48.584Z,15.40
2017-10-29T17:53:23.681Z,15.20
2017-10-29T17:55:53.210Z,15.10
2017-10-29T17:58:22.409Z,15.40
2017-10-29T18:00:53.870Z,15.30
2017-10-29T18:03:23.194Z,14.90
2017-10-29T18:05:52.460Z,15.20
2017-10-29T18:08:21.933Z,15.40
2017-10-29T18:10:51.245Z,15.80
2017-10-29T18:13:20.487Z,15.90
2017-10-29T18:15:51.240Z,15.90
2017-10-29T18:18:21.543Z,16.00
2017-10-29T18:20:51.099Z,15.90
2017-10-29T18:23:20.931Z,16.00
2017-10-29T18:25:50.310Z,16.10
2017-10-29T18:28:19.463Z,16.10
2017-10-29T18:30:49.272Z,16.00
2017-10-29T18:33:18.601Z,16.10
2017-10-29T18:35:48.707Z,16.20
2017-10-29T18:38:18.998Z,16.10
2017-10-29T18:40:48.401Z,16.10
2017-10-29T18:43:17.735Z,16.20
2017-10-29T18:45:47.156Z,16.40
2017-10-29T18:48:16.335Z,16.70
2017-10-29T18:50:46.540Z,16.80
2017-10-29T18:53:16.140Z,16.80
2017-10-29T18:55:47.663Z,16.90
2017-10-29T18:58:18.238Z,16.90
2017-10-29T19:00:48.227Z,16.90
2017-10-29T19:03:17.478Z,16.60
2017-10-29T19:05:47.302Z,16.80
2017-10-29T19:08:18.651Z,16.80
2017-10-29T19:10:47.956Z,16.80
2017-10-29T19:13:17.460Z,16.80
2017-10-29T19:15:46.779Z,16.90
2017-10-29T19:18:16.872Z,16.80
2017-10-29T19:20:46.120Z,16.70
2017-10-29T19:23:15.547Z,16.70
2017-10-29T19:25:45.559Z,16.50
2017-10-29T19:28:16.462Z,16.50
2017-10-29T19:30:46.177Z,16.40
2017-10-29T19:33:17.543Z,16.40
2017-10-29T19:35:46.669Z,16.30
2017-10-29T19:38:15.932Z,16.10
2017-10-29T19:40:45.499Z,16.10
2017-10-29T19:43:15.113Z,16.20
2017-10-29T19:45:44.673Z,16.10
2017-10-29T19:48:14.052Z,16.30
2017-10-29T19:50:43.320Z,16.40
2017-10-29T19:53:12.106Z,16.60
2017-10-29T19:55:41.662Z,16.70
2017-10-29T19:58:11.089Z,16.40
2017-10-29T20:00:40.334Z,16.50
2017-10-29T20:03:09.643Z,16.20
2017-10-29T20:05:38.394Z,16.30
2017-10-29T20:08:08.616Z,16.40
2017-10-29T20:10:39.007Z,16.30
2017-10-29T20:13:09.143Z,16.40
2017-10-29T20:15:39.352Z,16.40
2017-10-29T20:18:08.586Z,16.40
2017-10-29T20:20:40.207Z,16.60
2017-10-29T20:23:09.473Z,16.60
2017-10-29T20:25:38.805Z,16.60
2017-10-29T20:28:08.232Z,16.60
2017-10-29T20:30:39.340Z,16.50
2017-10-29T20:33:08.638Z,16.70
2017-10-29T20:35:38.373Z,16.40
2017-10-29T20:38:11.145Z,16.40
2017-10-29T20:40:40.697Z,16.30
2017-10-29T20:43:10.175Z,16.40
2017-10-29T20:45:40.200Z,16.70
2017-10-29T20:48:12.498Z,16.70
2017-10-29T20:50:44.069Z,16.70
2017-10-29T20:53:13.608Z,16.80
2017-10-29T20:55:43.061Z,17.10
2017-10-29T20:58:14.592Z,17.10
2017-10-29T21:00:44.201Z,17.20
2017-10-29T21:03:14.468Z,17.20
2017-10-29T21:05:44.060Z,17.20
2017-10-29T21:08:13.275Z,17.30
2017-10-29T21:10:42.997Z,17.40
2017-10-29T21:13:12.185Z,17.40
2017-10-29T21:18:19.489Z,17.20
2017-10-29T21:20:49.335Z,17.20
2017-10-29T21:23:18.906Z,17.10
2017-10-29T21:25:53.910Z,17.10
2017-10-29T21:28:23.805Z,17.10
2017-10-29T21:30:57.877Z,17.20
2017-10-29T21:33:29.479Z,17.20
2017-10-29T21:36:01.625Z,16.90
2017-10-29T21:38:31.280Z,16.90
2017-10-29T21:41:01.122Z,16.80
2017-10-29T21:43:30.527Z,16.90
2017-10-29T21:46:01.873Z,16.90
2017-10-29T21:48:31.571Z,16.90
2017-10-29T21:51:00.854Z,16.80
2017-10-29T21:53:31.997Z,16.70
2017-10-29T21:56:01.654Z,16.60
2017-10-29T21:58:31.026Z,16.60
2017-10-29T22:01:00.408Z,16.50
2017-10-29T22:03:30.100Z,16.40
2017-10-29T22:06:00.356Z,16.40
2017-10-29T22:08:30.754Z,16.40
2017-10-29T22:11:00.463Z,16.20
2017-10-29T22:13:30.722Z,16.20
2017-10-29T22:16:00.295Z,16.20
2017-10-29T22:18:30.524Z,15.90
2017-10-29T22:21:01.052Z,15.80
2017-10-29T22:23:30.260Z,15.70
2017-10-29T22:25:59.652Z,15.80
2017-10-29T22:28:29.748Z,15.60
2017-10-29T22:30:59.104Z,15.50
2017-10-29T22:33:28.363Z,15.50
2017-10-29T22:35:57.506Z,15.40
2017-10-29T22:38:26.608Z,15.40
2017-10-29T22:40:55.420Z,15.30
2017-10-29T22:43:24.875Z,15.30
2017-10-29T22:45:54.161Z,15.30
2017-10-29T22:48:24.473Z,15.20
2017-10-29T22:50:53.625Z,15.20
2017-10-29T22:53:22.761Z,15.30
2017-10-29T22:55:52.232Z,15.40
2017-10-29T22:58:22.018Z,15.30
2017-10-29T23:00:51.563Z,15.30
2017-10-29T23:03:20.965Z,15.30
2017-10-29T23:05:59.175Z,15.30
2017-10-29T23:08:32.215Z,15.10
2017-10-29T23:11:01.394Z,15.10
2017-10-29T23:13:30.858Z,15.10
2017-10-29T23:16:03.399Z,15.00
2017-10-29T23:18:32.845Z,14.90
2017-10-29T23:21:03.777Z,14.90
2017-10-29T23:23:33.085Z,14.90
2017-10-29T23:26:02.625Z,14.90
2017-10-29T23:28:33.930Z,15.00
2017-10-29T23:31:03.268Z,14.90
2017-10-29T23:33:33.503Z,15.00
2017-10-29T23:36:02.825Z,14.90
2017-10-29T23:38:32.736Z,14.90
2017-10-29T23:41:02.106Z,15.00
2017-10-29T23:43:31.462Z,14.90
2017-10-29T23:46:00.709Z,14.90
2017-10-29T23:48:30.968Z,14.90
2017-10-29T23:51:00.375Z,14.90
2017-10-29T23:53:29.747Z,14.90
2017-10-29T23:55:59.695Z,14.90
2017-10-29T23:58:28.922Z,14.90
